Time;durP1;ratioP1;P1;durP2;ratioP2;P2;SDS_P1;SDS_P2;PMS_P1;PMS_P2;Temp;Humidity;BMP_temperature;BMP_pressure;BME280_temperature;BME280_humidity;BME280_pressure;Samples;Min_cycle;Max_cycle;Signal;HPM_P1;HPM_P2
2023/09/04 00:01:08;;;;;;;1.95;0.70;;;14.00;99.90;;;;;;5054168;28;20051;-80
2023/09/04 00:03:34;;;;;;;1.17;0.40;;;13.90;99.90;;;;;;5073234;28;20036;-79
2023/09/04 00:05:59;;;;;;;0.90;0.70;;;13.90;99.90;;;;;;5054254;28;20032;-80
2023/09/04 00:08:25;;;;;;;1.00;0.70;;;13.90;99.90;;;;;;5055562;28;20043;-79
2023/09/04 00:10:51;;;;;;;1.23;0.80;;;13.90;99.90;;;;;;5054433;28;20032;-80
2023/09/04 00:13:17;;;;;;;2.08;1.00;;;13.80;99.90;;;;;;5055377;28;20481;-80
2023/09/04 00:15:43;;;;;;;1.45;0.93;;;13.80;99.90;;;;;;5052801;28;20093;-80
2023/09/04 00:18:08;;;;;;;1.90;0.85;;;13.70;99.90;;;;;;5073259;28;20043;-80
2023/09/04 00:20:34;;;;;;;0.40;0.40;;;13.60;99.90;;;;;;5072337;28;20032;-80
2023/09/04 00:22:59;;;;;;;1.38;0.40;;;13.60;99.90;;;;;;5071212;28;20045;-80
2023/09/04 00:25:25;;;;;;;1.85;0.60;;;13.70;99.90;;;;;;5055278;28;20038;-79
2023/09/04 00:27:51;;;;;;;2.08;0.30;;;13.70;99.90;;;;;;5053965;28;20501;-80
2023/09/04 00:30:17;;;;;;;0.70;0.30;;;13.70;99.90;;;;;;5071919;28;20098;-80
2023/09/04 00:32:43;;;;;;;0.10;0.10;;;13.70;99.90;;;;;;5069605;28;20041;-80
2023/09/04 00:35:12;;;;;;;0.20;0.20;;;13.60;99.90;;;;;;5061674;28;20463;-79
2023/09/04 00:37:38;;;;;;;0.30;0.30;;;13.60;99.90;;;;;;5031377;28;20045;-79
2023/09/04 00:40:05;;;;;;;0.20;0.20;;;13.60;99.90;;;;;;5023694;28;20454;-80
2023/09/04 00:42:33;;;;;;;0.30;0.25;;;13.50;99.90;;;;;;5068456;28;20496;-79
2023/09/04 00:44:58;;;;;;;0.43;0.43;;;13.50;99.90;;;;;;5087104;28;20476;-79
2023/09/04 00:47:24;;;;;;;0.30;0.30;;;13.40;99.90;;;;;;5053364;28;20063;-80
2023/09/04 00:49:52;;;;;;;0.35;0.25;;;13.30;99.90;;;;;;5071729;28;20044;-80
2023/09/04 00:52:18;;;;;;;0.90;0.13;;;13.40;99.90;;;;;;5071348;28;20461;-79
2023/09/04 00:54:44;;;;;;;1.13;0.22;;;13.30;99.90;;;;;;5054817;28;20075;-79
2023/09/04 00:57:10;;;;;;;0.30;0.30;;;13.30;99.90;;;;;;5054981;28;20123;-79
2023/09/04 00:59:36;;;;;;;0.73;0.40;;;13.30;99.90;;;;;;5072831;28;20040;-79
2023/09/04 01:02:04;;;;;;;0.35;0.35;;;13.30;99.90;;;;;;5051542;28;20268;-79
2023/09/04 01:04:30;;;;;;;1.15;0.50;;;13.20;99.90;;;;;;5053640;28;20084;-80
2023/09/04 01:06:56;;;;;;;0.45;0.45;;;13.10;99.90;;;;;;5072888;28;20497;-80
2023/09/04 01:09:23;;;;;;;0.73;0.70;;;13.10;99.90;;;;;;5071737;28;20055;-80
2023/09/04 01:11:55;;;;;;;1.40;0.70;;;13.00;99.90;;;;;;5069804;28;20522;-80
2023/09/04 01:14:23;;;;;;;2.47;0.75;;;13.00;99.90;;;;;;5054775;28;20032;-80
2023/09/04 01:16:49;;;;;;;0.98;0.60;;;12.90;99.90;;;;;;5054681;28;20485;-79
2023/09/04 01:19:17;;;;;;;0.60;0.60;;;12.90;99.90;;;;;;5071693;28;20040;-80
2023/09/04 01:21:42;;;;;;;2.65;0.70;;;12.80;99.90;;;;;;5065098;28;20047;-80
2023/09/04 01:24:08;;;;;;;1.08;0.75;;;12.80;99.90;;;;;;5088312;28;20037;-79
2023/09/04 01:26:40;;;;;;;1.30;0.60;;;12.70;99.90;;;;;;5071117;28;20048;-78
2023/09/04 01:29:06;;;;;;;0.77;0.52;;;12.80;99.90;;;;;;5071424;28;20492;-79
2023/09/04 01:31:55;;;;;;;0.50;0.50;;;12.80;99.90;;;;;;5053209;28;20055;-79
2023/09/04 01:34:25;;;;;;;0.90;0.70;;;12.80;99.90;;;;;;5071486;28;20036;-79
2023/09/04 01:36:57;;;;;;;1.60;0.70;;;12.80;99.90;;;;;;5071122;28;20393;-79
2023/09/04 01:39:23;;;;;;;1.45;0.85;;;12.80;99.90;;;;;;5071113;28;20127;-79
2023/09/04 01:41:50;;;;;;;0.77;0.68;;;12.80;99.90;;;;;;5046714;28;20120;-79
2023/09/04 01:44:15;;;;;;;0.60;0.60;;;12.70;99.90;;;;;;5014657;28;20057;-78
2023/09/04 01:46:41;;;;;;;3.38;0.90;;;12.70;99.90;;;;;;5017722;28;20041;-78
2023/09/04 01:49:07;;;;;;;0.40;0.40;;;12.80;99.90;;;;;;5037627;28;20045;-78
2023/09/04 01:51:33;;;;;;;1.58;0.60;;;12.70;99.90;;;;;;5055790;28;20041;-78
2023/09/04 01:53:58;;;;;;;1.17;0.50;;;12.70;99.90;;;;;;5074633;28;20040;-78
2023/09/04 01:56:24;;;;;;;0.40;0.40;;;12.70;99.90;;;;;;5057870;28;20032;-79
2023/09/04 01:58:49;;;;;;;2.08;0.70;;;12.70;99.90;;;;;;5056808;28;20397;-79
2023/09/04 02:01:15;;;;;;;4.30;1.00;;;12.70;99.90;;;;;;5054777;28;20064;-79
2023/09/04 02:03:44;;;;;;;1.05;0.80;;;12.70;99.90;;;;;;5053851;28;20041;-79
2023/09/04 02:06:09;;;;;;;2.35;0.52;;;12.60;99.90;;;;;;5059944;28;20161;-79
2023/09/04 02:08:35;;;;;;;0.70;0.50;;;12.60;99.90;;;;;;5072039;28;20040;-79
2023/09/04 02:11:00;;;;;;;0.40;0.40;;;12.60;99.90;;;;;;5066922;28;20033;-79
2023/09/04 02:13:26;;;;;;;0.80;0.55;;;12.50;99.90;;;;;;5089577;28;20500;-79
2023/09/04 02:15:52;;;;;;;0.55;0.47;;;12.50;99.90;;;;;;5064239;28;20055;-79
2023/09/04 02:18:17;;;;;;;0.88;0.50;;;12.50;99.90;;;;;;5070046;28;20041;-79
2023/09/04 02:20:45;;;;;;;0.65;0.40;;;12.60;99.90;;;;;;5053542;28;20040;-79
2023/09/04 02:23:10;;;;;;;0.40;0.38;;;12.60;99.90;;;;;;5068342;28;20094;-79
2023/09/04 02:25:36;;;;;;;0.20;0.20;;;12.60;99.90;;;;;;5055246;28;20040;-79
2023/09/04 02:28:02;;;;;;;0.47;0.40;;;12.60;99.90;;;;;;5065502;28;20061;-78
2023/09/04 02:30:27;;;;;;;0.30;0.30;;;12.60;99.90;;;;;;5052912;28;20044;-79
2023/09/04 02:32:58;;;;;;;1.65;0.30;;;12.50;99.90;;;;;;5050397;28;20030;-79
2023/09/04 02:35:24;;;;;;;0.77;0.30;;;12.50;99.90;;;;;;5051963;28;20033;-78
2023/09/04 02:37:50;;;;;;;2.58;0.50;;;12.50;99.90;;;;;;5070225;28;20033;-78
2023/09/04 02:40:15;;;;;;;0.35;0.35;;;12.50;99.90;;;;;;5056174;28;20133;-78
2023/09/04 02:42:41;;;;;;;0.63;0.40;;;12.50;99.90;;;;;;5049056;28;20033;-78
2023/09/04 02:45:08;;;;;;;1.00;0.60;;;12.40;99.90;;;;;;5075079;28;20062;-78
2023/09/04 02:47:35;;;;;;;0.30;0.30;;;12.40;99.90;;;;;;5072399;28;20519;-78
2023/09/04 02:50:01;;;;;;;0.90;0.40;;;12.30;99.90;;;;;;5050123;28;20063;-79
2023/09/04 02:52:29;;;;;;;0.60;0.32;;;12.40;99.90;;;;;;5059168;28;20032;-79
2023/09/04 02:54:55;;;;;;;0.20;0.20;;;12.30;99.90;;;;;;5070389;28;20086;-79
2023/09/04 02:57:21;;;;;;;0.30;0.30;;;12.40;99.90;;;;;;5070530;28;20048;-79
2023/09/04 02:59:46;;;;;;;1.10;0.40;;;12.30;99.90;;;;;;5056698;28;20051;-78
2023/09/04 03:02:12;;;;;;;0.40;0.40;;;12.30;99.90;;;;;;5055348;28;20055;-78
2023/09/04 03:04:38;;;;;;;0.40;0.40;;;12.30;99.90;;;;;;5024823;28;20515;-79
2023/09/04 03:07:03;;;;;;;0.50;0.50;;;12.20;99.90;;;;;;5053443;28;20037;-78
2023/09/04 03:09:31;;;;;;;0.60;0.60;;;12.20;99.90;;;;;;5053344;28;20424;-78
2023/09/04 03:11:58;;;;;;;1.45;0.60;;;12.20;99.90;;;;;;5064018;28;20047;-79
2023/09/04 03:14:23;;;;;;;0.95;0.52;;;12.20;99.90;;;;;;5084792;28;20072;-80
2023/09/04 03:16:49;;;;;;;0.40;0.40;;;12.20;99.90;;;;;;5058884;28;20078;-78
2023/09/04 03:19:14;;;;;;;0.40;0.40;;;12.10;99.90;;;;;;5071920;28;20048;-79
2023/09/04 03:21:40;;;;;;;0.70;0.60;;;12.10;99.90;;;;;;5069306;28;20544;-78
2023/09/04 03:24:06;;;;;;;1.35;0.60;;;12.10;99.90;;;;;;5072901;28;20397;-79
2023/09/04 03:26:31;;;;;;;2.40;0.70;;;12.10;99.90;;;;;;5065560;28;20120;-78
2023/09/04 03:28:57;;;;;;;0.98;0.70;;;12.10;99.90;;;;;;5072693;28;20077;-78
2023/09/04 03:31:23;;;;;;;0.50;0.50;;;12.10;99.90;;;;;;5070991;28;20044;-79
2023/09/04 03:33:48;;;;;;;0.45;0.45;;;12.00;99.90;;;;;;5053241;28;20037;-79
2023/09/04 03:36:14;;;;;;;0.55;0.50;;;12.00;99.90;;;;;;5036113;28;20061;-77
2023/09/04 03:38:39;;;;;;;0.65;0.50;;;12.00;99.90;;;;;;5053125;28;20516;-77
2023/09/04 03:41:05;;;;;;;1.25;0.65;;;12.00;99.90;;;;;;5035863;28;20045;-77
2023/09/04 03:43:31;;;;;;;0.55;0.55;;;11.90;99.90;;;;;;5053719;28;20124;-77
2023/09/04 03:45:56;;;;;;;1.30;0.60;;;11.90;99.90;;;;;;5035855;28;20095;-78
2023/09/04 03:48:22;;;;;;;0.85;0.63;;;11.70;99.90;;;;;;5052427;28;20052;-77
2023/09/04 03:50:48;;;;;;;0.88;0.75;;;11.60;99.90;;;;;;5052524;28;20087;-78
2023/09/04 03:53:13;;;;;;;0.60;0.60;;;11.60;99.90;;;;;;5052508;28;20037;-78
2023/09/04 03:55:39;;;;;;;0.68;0.60;;;11.60;99.90;;;;;;5036343;28;20049;-78
2023/09/04 03:58:04;;;;;;;1.48;0.60;;;11.60;99.90;;;;;;5053426;28;20073;-78
2023/09/04 04:00:30;;;;;;;0.30;0.30;;;11.60;99.90;;;;;;5052401;28;20041;-79
2023/09/04 04:02:57;;;;;;;1.27;0.50;;;11.60;99.90;;;;;;5035609;28;20179;-79
2023/09/04 04:05:23;;;;;;;2.35;0.60;;;11.70;99.90;;;;;;5053330;28;20044;-79
2023/09/04 04:07:49;;;;;;;1.95;0.40;;;11.60;99.90;;;;;;5035226;28;20032;-79
2023/09/04 04:10:15;;;;;;;0.43;0.43;;;11.70;99.90;;;;;;5053482;28;20393;-79
2023/09/04 04:12:41;;;;;;;0.40;0.40;;;11.60;99.90;;;;;;5036372;28;20043;-80
2023/09/04 04:15:08;;;;;;;0.55;0.55;;;11.60;99.90;;;;;;5035240;28;20045;-79
2023/09/04 04:17:35;;;;;;;0.40;0.40;;;11.60;99.90;;;;;;5053165;28;20094;-79
2023/09/04 04:20:00;;;;;;;1.33;0.50;;;11.60;99.90;;;;;;5035590;28;20080;-79
2023/09/04 04:22:26;;;;;;;0.95;0.60;;;11.60;99.90;;;;;;5052244;28;20080;-79
2023/09/04 04:24:52;;;;;;;1.60;0.70;;;11.50;99.90;;;;;;5052000;28;20041;-79
2023/09/04 04:27:17;;;;;;;1.17;0.63;;;11.50;99.90;;;;;;5051770;28;20075;-79
2023/09/04 04:29:48;;;;;;;1.60;0.80;;;11.50;99.90;;;;;;5053591;28;20029;-79
2023/09/04 04:32:14;;;;;;;1.55;1.10;;;11.50;99.90;;;;;;5053018;28;20033;-79
2023/09/04 04:34:41;;;;;;;1.90;1.20;;;11.50;99.90;;;;;;5077443;28;20044;-80
2023/09/04 04:37:07;;;;;;;2.40;1.10;;;11.40;99.90;;;;;;5042524;28;20131;-79
2023/09/04 04:39:32;;;;;;;2.47;1.27;;;11.40;99.90;;;;;;5055407;28;20044;-79
2023/09/04 04:41:58;;;;;;;1.58;1.17;;;11.30;99.90;;;;;;5065346;28;20512;-79
2023/09/04 04:44:24;;;;;;;2.50;1.23;;;11.30;99.90;;;;;;5069715;28;20549;-79
2023/09/04 04:46:49;;;;;;;4.18;1.50;;;11.20;99.90;;;;;;5065154;28;20039;-79
2023/09/04 04:49:20;;;;;;;4.65;2.00;;;11.20;99.90;;;;;;5069733;28;20044;-79
2023/09/04 04:51:45;;;;;;;4.30;1.80;;;11.20;99.90;;;;;;5070712;28;20040;-79
2023/09/04 04:54:11;;;;;;;4.05;1.92;;;11.10;99.90;;;;;;5070613;28;20047;-79
2023/09/04 04:56:36;;;;;;;4.30;1.83;;;11.10;99.90;;;;;;5070333;28;20040;-79
2023/09/04 04:59:02;;;;;;;4.22;1.88;;;11.20;99.90;;;;;;5049253;28;20132;-79
2023/09/04 05:01:28;;;;;;;4.43;2.10;;;11.20;99.90;;;;;;5053623;28;20040;-79
2023/09/04 05:03:53;;;;;;;2.75;1.50;;;11.20;99.90;;;;;;5037694;28;20056;-79
2023/09/04 05:06:19;;;;;;;3.33;1.67;;;11.20;99.90;;;;;;5047301;28;20037;-79
2023/09/04 05:08:44;;;;;;;1.90;1.10;;;11.20;99.90;;;;;;5035019;28;20041;-79
2023/09/04 05:11:10;;;;;;;0.80;0.70;;;11.30;99.90;;;;;;5059001;28;20032;-79
2023/09/04 05:13:35;;;;;;;1.60;0.60;;;11.30;99.90;;;;;;5070351;28;20045;-79
2023/09/04 05:16:04;;;;;;;1.00;0.70;;;11.30;99.90;;;;;;5051527;28;20075;-79
2023/09/04 05:18:31;;;;;;;2.15;0.93;;;11.30;99.90;;;;;;5058558;28;20496;-79
2023/09/04 05:20:57;;;;;;;3.75;1.50;;;11.40;99.90;;;;;;5068368;28;20044;-80
2023/09/04 05:23:23;;;;;;;2.67;1.48;;;11.40;99.90;;;;;;5064974;28;20045;-79
2023/09/04 05:25:53;;;;;;;4.82;1.77;;;11.40;99.90;;;;;;5045960;28;20073;-79
2023/09/04 05:28:19;;;;;;;2.65;1.33;;;11.40;99.90;;;;;;5091872;28;20401;-79
2023/09/04 05:30:45;;;;;;;3.20;1.40;;;11.50;99.90;;;;;;5063332;28;20055;-79
2023/09/04 05:33:11;;;;;;;4.00;1.30;;;11.50;99.90;;;;;;5038483;28;20486;-79
2023/09/04 05:35:36;;;;;;;3.55;1.40;;;11.50;99.90;;;;;;5066335;28;20047;-79
2023/09/04 05:38:02;;;;;;;3.25;1.58;;;11.60;99.90;;;;;;5061722;28;20045;-79
2023/09/04 05:40:28;;;;;;;2.78;1.40;;;11.60;99.90;;;;;;5068097;28;20037;-79
2023/09/04 05:42:53;;;;;;;5.20;1.80;;;11.60;99.90;;;;;;5036081;28;20087;-79
2023/09/04 05:45:22;;;;;;;2.95;1.50;;;11.60;99.90;;;;;;5057047;28;20036;-79
2023/09/04 05:47:47;;;;;;;2.80;1.70;;;11.70;99.90;;;;;;5068949;28;20036;-80
2023/09/04 05:50:13;;;;;;;3.00;1.67;;;11.70;99.90;;;;;;5074638;28;20111;-79
2023/09/04 05:52:39;;;;;;;2.90;1.90;;;11.70;99.90;;;;;;5071280;28;20024;-79
2023/09/04 05:55:05;;;;;;;3.95;1.98;;;11.70;99.90;;;;;;5053920;28;20040;-80
2023/09/04 05:57:31;;;;;;;5.18;2.40;;;11.80;99.90;;;;;;5065889;28;20044;-80
2023/09/04 05:59:56;;;;;;;5.20;2.88;;;11.80;99.90;;;;;;5064130;28;20036;-79
2023/09/04 06:02:22;;;;;;;4.00;2.03;;;11.90;99.90;;;;;;5044011;28;20477;-80
2023/09/04 06:04:48;;;;;;;4.40;1.90;;;11.90;99.90;;;;;;5055845;28;20087;-79
2023/09/04 06:07:15;;;;;;;4.35;2.00;;;11.90;99.90;;;;;;5054633;28;20040;-79
2023/09/04 06:09:42;;;;;;;4.93;2.60;;;12.00;99.90;;;;;;5045552;28;20492;-80
2023/09/04 06:12:11;;;;;;;6.28;3.10;;;12.10;99.90;;;;;;5029278;28;20393;-80
2023/09/04 06:14:37;;;;;;;6.00;3.40;;;12.10;99.90;;;;;;5048368;28;20045;-79
2023/09/04 06:17:03;;;;;;;7.32;3.55;;;12.20;99.90;;;;;;5056741;28;20167;-79
2023/09/04 06:19:28;;;;;;;6.78;3.83;;;12.20;99.90;;;;;;5055915;28;20044;-79
2023/09/04 06:21:54;;;;;;;9.15;5.15;;;12.30;99.90;;;;;;5045150;28;20055;-79
2023/09/04 06:24:20;;;;;;;13.27;9.35;;;12.40;99.90;;;;;;5044528;28;20086;-79
2023/09/04 06:26:46;;;;;;;12.70;8.85;;;12.50;99.90;;;;;;5056509;28;20029;-79
2023/09/04 06:29:12;;;;;;;14.68;10.95;;;12.60;99.90;;;;;;5054601;28;20041;-80
2023/09/04 06:31:38;;;;;;;14.20;10.18;;;12.70;99.90;;;;;;5047805;28;20044;-79
2023/09/04 06:34:03;;;;;;;14.05;10.55;;;12.80;99.90;;;;;;5069738;28;20439;-79
2023/09/04 06:36:29;;;;;;;15.75;11.25;;;12.90;99.90;;;;;;5073683;28;20040;-80
2023/09/04 06:38:55;;;;;;;14.77;12.13;;;13.00;99.90;;;;;;5065692;28;20039;-80
2023/09/04 06:41:21;;;;;;;14.48;12.18;;;13.10;99.90;;;;;;5059324;28;20040;-80
2023/09/04 06:43:47;;;;;;;19.45;12.85;;;13.20;99.90;;;;;;5054002;28;21136;-80
2023/09/04 06:46:13;;;;;;;15.65;13.43;;;13.30;99.90;;;;;;5027177;28;20041;-79
2023/09/04 06:48:39;;;;;;;16.95;13.88;;;13.40;99.90;;;;;;5040465;28;20036;-79
2023/09/04 06:51:05;;;;;;;15.82;12.73;;;13.60;99.90;;;;;;5045082;28;20040;-79
2023/09/04 06:53:31;;;;;;;18.77;13.73;;;13.70;99.90;;;;;;5058026;28;20072;-79
2023/09/04 06:55:56;;;;;;;17.30;13.60;;;13.70;99.90;;;;;;5046259;28;20390;-79
2023/09/04 06:58:22;;;;;;;16.55;13.73;;;13.90;99.90;;;;;;5052978;28;20060;-80
2023/09/04 07:00:48;;;;;;;17.15;14.05;;;14.00;99.90;;;;;;5016795;28;20124;-79
2023/09/04 07:03:13;;;;;;;14.43;11.52;;;14.10;99.90;;;;;;5030483;28;20049;-79
2023/09/04 07:05:39;;;;;;;15.18;12.98;;;14.10;99.90;;;;;;5052351;28;20083;-79
2023/09/04 07:08:05;;;;;;;15.82;12.65;;;14.30;99.90;;;;;;5035780;28;20033;-79
2023/09/04 07:10:31;;;;;;;14.52;12.75;;;14.30;99.90;;;;;;5041847;28;20382;-79
2023/09/04 07:13:00;;;;;;;14.80;13.20;;;14.50;99.90;;;;;;5019757;28;20041;-79
2023/09/04 07:15:25;;;;;;;17.15;12.88;;;14.60;99.90;;;;;;5047606;28;20497;-79
2023/09/04 07:17:51;;;;;;;15.77;12.95;;;14.80;99.90;;;;;;5052472;28;20052;-79
2023/09/04 07:20:17;;;;;;;16.40;14.70;;;14.90;99.90;;;;;;5058594;28;20467;-80
2023/09/04 07:22:42;;;;;;;16.92;15.13;;;15.00;99.90;;;;;;5067694;28;20045;-80
2023/09/04 07:25:09;;;;;;;15.48;13.50;;;15.10;99.90;;;;;;5035537;28;20087;-79
2023/09/04 07:27:34;;;;;;;15.20;13.55;;;15.20;99.90;;;;;;5053829;28;20066;-79
2023/09/04 07:30:00;;;;;;;15.27;12.73;;;15.20;99.90;;;;;;5041533;28;20037;-80
2023/09/04 07:32:26;;;;;;;15.18;12.82;;;15.40;99.90;;;;;;5051735;28;20112;-80
2023/09/04 07:34:56;;;;;;;14.23;11.90;;;15.50;99.90;;;;;;5046859;28;20044;-79
2023/09/04 07:37:26;;;;;;;14.02;10.77;;;15.60;99.90;;;;;;5040934;28;20040;-80
2023/09/04 07:39:52;;;;;;;15.25;11.57;;;15.70;99.90;;;;;;5043509;28;20036;-80
2023/09/04 07:42:18;;;;;;;13.40;11.50;;;15.80;99.90;;;;;;5055594;28;20397;-80
2023/09/04 07:44:44;;;;;;;12.63;11.13;;;15.90;99.90;;;;;;5067205;28;20035;-80
2023/09/04 07:47:09;;;;;;;12.05;10.38;;;16.10;99.90;;;;;;5064690;28;20095;-80
2023/09/04 07:49:35;;;;;;;12.43;9.48;;;16.20;99.90;;;;;;5060705;28;20150;-80
2023/09/04 07:52:00;;;;;;;10.48;8.20;;;16.20;99.90;;;;;;5071789;28;20039;-79
2023/09/04 07:54:26;;;;;;;10.50;7.57;;;16.30;99.90;;;;;;5032034;28;20037;-84
2023/09/04 07:56:51;;;;;;;8.75;7.70;;;16.40;99.90;;;;;;5051841;28;20033;-84
2023/09/04 07:59:17;;;;;;;11.75;8.05;;;16.60;99.90;;;;;;5061268;28;20117;-80
2023/09/04 08:01:42;;;;;;;9.90;8.02;;;16.60;99.90;;;;;;5040347;28;20037;-80
2023/09/04 08:04:08;;;;;;;8.80;6.75;;;16.80;99.90;;;;;;5053732;28;20049;-80
2023/09/04 08:06:34;;;;;;;9.38;6.63;;;16.80;99.90;;;;;;5038553;28;20042;-80
2023/09/04 08:08:59;;;;;;;9.63;6.70;;;16.90;99.90;;;;;;5020354;28;20481;-80
2023/09/04 08:11:25;;;;;;;9.23;6.45;;;17.00;99.90;;;;;;5042848;28;20370;-80
2023/09/04 08:13:51;;;;;;;7.93;5.65;;;17.10;99.90;;;;;;5058820;28;20036;-81
2023/09/04 08:16:16;;;;;;;9.18;5.40;;;17.30;99.90;;;;;;5068983;28;20036;-81
2023/09/04 08:18:42;;;;;;;9.07;5.63;;;17.30;99.90;;;;;;5068115;28;20044;-81
2023/09/04 08:21:07;;;;;;;7.60;5.43;;;17.40;99.90;;;;;;5069946;28;20094;-81
2023/09/04 08:23:33;;;;;;;7.90;5.63;;;17.40;99.90;;;;;;5071303;28;20079;-81
2023/09/04 08:25:59;;;;;;;9.48;6.25;;;17.50;99.90;;;;;;5058943;28;20037;-81
2023/09/04 08:28:25;;;;;;;7.60;5.43;;;17.70;99.90;;;;;;5030753;28;20045;-81
2023/09/04 08:30:51;;;;;;;7.65;5.25;;;17.70;99.90;;;;;;5034953;28;20542;-80
2023/09/04 08:33:17;;;;;;;8.82;5.88;;;17.80;99.90;;;;;;5067417;28;20119;-80
2023/09/04 08:35:42;;;;;;;9.23;5.50;;;17.90;99.90;;;;;;5066999;28;20055;-81
2023/09/04 08:38:08;;;;;;;8.30;4.18;;;17.90;99.90;;;;;;5066624;28;20044;-81
2023/09/04 08:40:36;;;;;;;8.77;5.80;;;18.20;99.90;;;;;;5071238;28;20040;-81
2023/09/04 08:43:03;;;;;;;8.05;5.82;;;18.40;99.90;;;;;;5058725;28;20051;-81
2023/09/04 08:45:29;;;;;;;8.15;5.35;;;18.40;99.90;;;;;;5030886;28;20033;-80
2023/09/04 08:47:55;;;;;;;8.57;5.22;;;18.50;99.90;;;;;;5043720;28;20029;-80
2023/09/04 08:50:23;;;;;;;8.18;5.53;;;18.50;99.90;;;;;;5054459;28;20098;-81
2023/09/04 08:52:50;;;;;;;8.85;5.35;;;18.60;99.90;;;;;;5039542;28;20064;-81
2023/09/04 08:55:19;;;;;;;8.27;5.20;;;18.60;99.90;;;;;;5043615;28;20032;-81
2023/09/04 08:57:44;;;;;;;7.18;5.18;;;18.70;99.90;;;;;;5067825;28;20040;-81
2023/09/04 09:00:10;;;;;;;7.00;4.70;;;18.80;99.90;;;;;;5073191;28;20524;-80
2023/09/04 09:02:38;;;;;;;8.85;5.68;;;18.90;99.90;;;;;;5052592;28;20038;-80
2023/09/04 09:05:04;;;;;;;9.07;5.82;;;19.00;99.90;;;;;;5043111;28;20046;-80
2023/09/04 09:07:30;;;;;;;7.10;5.13;;;19.10;99.90;;;;;;5044632;28;20041;-80
2023/09/04 09:10:06;;;;;;;8.82;5.25;;;19.20;99.90;;;;;;5046672;28;20071;-80
2023/09/04 09:12:32;;;;;;;7.95;4.88;;;19.30;99.90;;;;;;5035375;28;20033;-80
2023/09/04 09:15:01;;;;;;;7.50;5.20;;;19.30;99.90;;;;;;5053723;28;20105;-79
2023/09/04 09:17:27;;;;;;;9.55;4.78;;;19.40;99.90;;;;;;5055640;28;20093;-80
2023/09/04 09:19:52;;;;;;;9.00;4.15;;;19.60;99.90;;;;;;5045797;28;20447;-80
2023/09/04 09:22:22;;;;;;;6.53;4.00;;;19.70;99.90;;;;;;5041669;28;20047;-80
2023/09/04 09:24:56;;;;;;;6.63;4.00;;;19.80;99.90;;;;;;5049760;28;20054;-80
2023/09/04 09:27:32;;;;;;;7.78;4.05;;;19.80;99.90;;;;;;5058215;28;20501;-79
2023/09/04 09:30:01;;;;;;;5.43;3.30;;;19.90;99.90;;;;;;5055772;28;20048;-80
2023/09/04 09:32:32;;;;;;;7.20;4.00;;;20.10;99.90;;;;;;5048544;28;20033;-79
2023/09/04 09:34:59;;;;;;;5.63;3.35;;;20.10;99.90;;;;;;5060790;28;20063;-80
2023/09/04 09:37:26;;;;;;;7.90;3.50;;;20.20;99.90;;;;;;5034828;28;20391;-80
2023/09/04 09:39:52;;;;;;;6.90;3.22;;;20.30;99.90;;;;;;5040906;28;20486;-80
2023/09/04 09:42:23;;;;;;;5.65;3.05;;;20.30;99.90;;;;;;5088624;28;20051;-80
2023/09/04 09:44:50;;;;;;;5.25;3.30;;;20.40;99.90;;;;;;5072621;28;20050;-79
2023/09/04 09:47:16;;;;;;;6.28;3.35;;;20.40;99.90;;;;;;5049393;28;20158;-79
2023/09/04 09:49:43;;;;;;;6.10;3.40;;;20.50;99.90;;;;;;5055206;28;20296;-80
2023/09/04 09:52:10;;;;;;;5.15;2.97;;;20.50;99.90;;;;;;5064708;28;20037;-80
2023/09/04 09:54:37;;;;;;;5.82;2.88;;;20.60;99.90;;;;;;5042027;28;20106;-80
2023/09/04 09:57:07;;;;;;;6.38;3.75;;;20.60;99.90;;;;;;5061953;28;20442;-80
2023/09/04 09:59:35;;;;;;;7.63;3.30;;;20.70;99.90;;;;;;5051028;28;20069;-79
2023/09/04 10:02:04;;;;;;;4.80;3.15;;;20.80;99.90;;;;;;5030440;28;20120;-80
2023/09/04 10:04:31;;;;;;;5.82;3.30;;;20.80;99.90;;;;;;5033730;28;20084;-80
2023/09/04 10:07:00;;;;;;;6.90;3.13;;;20.90;99.90;;;;;;5032934;28;20512;-79
2023/09/04 10:09:27;;;;;;;5.53;2.90;;;20.90;99.90;;;;;;5036758;28;20038;-80
2023/09/04 10:12:05;;;;;;;5.05;2.65;;;21.00;99.90;;;;;;5062780;28;20034;-79
2023/09/04 10:14:42;;;;;;;6.35;2.90;;;21.10;99.90;;;;;;5051495;28;20124;-79
2023/09/04 10:17:35;;;;;;;6.68;3.22;;;21.20;99.90;;;;;;5056517;28;20068;-79
2023/09/04 10:20:04;;;;;;;5.85;2.92;;;21.20;99.90;;;;;;5053610;28;20045;-79
2023/09/04 10:22:37;;;;;;;4.95;2.60;;;21.20;99.90;;;;;;5048557;28;20045;-80
2023/09/04 10:25:12;;;;;;;6.00;2.50;;;21.40;99.90;;;;;;5061984;28;20049;-79
2023/09/04 10:27:58;;;;;;;4.72;2.35;;;21.40;99.90;;;;;;5052193;28;20053;-79
2023/09/04 10:30:29;;;;;;;5.93;2.40;;;21.50;99.90;;;;;;5033741;28;20041;-80
2023/09/04 10:32:55;;;;;;;4.43;2.20;;;21.60;99.90;;;;;;5060445;28;20036;-79
2023/09/04 10:35:21;;;;;;;4.28;2.17;;;21.50;99.90;;;;;;5036503;28;20063;-80
2023/09/04 10:37:49;;;;;;;6.03;2.63;;;21.60;99.90;;;;;;5054743;28;20037;-79
2023/09/04 10:40:16;;;;;;;5.53;2.45;;;21.60;99.90;;;;;;5035873;28;20071;-79
2023/09/04 10:42:42;;;;;;;5.05;2.40;;;21.60;99.90;;;;;;5038357;28;21076;-79
2023/09/04 10:45:15;;;;;;;5.63;2.75;;;21.80;99.90;;;;;;5037710;28;20038;-79
2023/09/04 10:47:50;;;;;;;5.50;2.50;;;21.80;99.90;;;;;;5048242;28;20040;-79
2023/09/04 10:50:30;;;;;;;4.20;2.20;;;21.80;99.90;;;;;;5073781;28;20051;-79
2023/09/04 10:53:04;;;;;;;5.82;2.63;;;21.90;99.90;;;;;;5072277;28;20036;-80
2023/09/04 10:55:30;;;;;;;6.25;2.50;;;21.90;99.90;;;;;;5051952;28;20041;-79
2023/09/04 10:57:57;;;;;;;5.15;2.60;;;21.90;99.90;;;;;;5068054;28;20032;-79
2023/09/04 11:00:34;;;;;;;5.25;2.50;;;21.90;99.90;;;;;;5051881;28;20041;-79
2023/09/04 11:03:19;;;;;;;7.07;2.88;;;21.90;99.90;;;;;;5036063;28;20036;-79
2023/09/04 11:06:04;;;;;;;3.92;2.33;;;21.90;99.90;;;;;;5034114;28;20038;-79
2023/09/04 11:08:32;;;;;;;5.38;2.30;;;22.00;99.90;;;;;;5053292;28;20043;-79
2023/09/04 11:11:03;;;;;;;5.38;2.70;;;22.00;99.90;;;;;;5046364;28;20045;-79
2023/09/04 11:13:29;;;;;;;4.32;1.95;;;22.10;99.90;;;;;;5035835;28;20045;-79
2023/09/04 11:15:56;;;;;;;4.05;2.20;;;22.20;99.90;;;;;;5047497;28;20056;-79
2023/09/04 11:18:22;;;;;;;4.82;2.35;;;22.20;99.90;;;;;;5051977;28;20040;-79
2023/09/04 11:20:54;;;;;;;4.82;2.45;;;22.10;99.90;;;;;;5072696;28;20124;-79
2023/09/04 11:23:22;;;;;;;5.45;2.50;;;22.20;99.90;;;;;;5069517;28;20556;-79
2023/09/04 11:25:48;;;;;;;4.90;2.80;;;22.20;99.90;;;;;;5068536;28;20112;-79
2023/09/04 11:28:14;;;;;;;4.85;2.58;;;22.20;99.90;;;;;;5053161;28;20568;-79
2023/09/04 11:30:40;;;;;;;5.20;2.50;;;22.30;99.90;;;;;;5067215;28;20547;-79
2023/09/04 11:33:10;;;;;;;6.07;2.63;;;22.30;99.90;;;;;;5072140;28;20503;-79
2023/09/04 11:35:36;;;;;;;5.18;2.50;;;22.30;99.90;;;;;;5028727;28;20065;-79
2023/09/04 11:38:22;;;;;;;6.32;2.45;;;22.30;99.90;;;;;;5064239;28;20044;-79
2023/09/04 11:40:48;;;;;;;4.95;2.47;;;22.30;99.90;;;;;;5024455;28;20028;-79
2023/09/04 11:43:13;;;;;;;5.95;2.72;;;22.30;99.90;;;;;;5052197;28;20044;-78
2023/09/04 11:45:39;;;;;;;8.48;2.70;;;22.30;99.90;;;;;;5037009;28;20069;-79
2023/09/04 11:48:04;;;;;;;7.13;2.58;;;22.30;99.90;;;;;;5015633;28;20042;-79
2023/09/04 11:50:30;;;;;;;7.25;2.40;;;22.40;99.90;;;;;;5032478;28;20379;-79
2023/09/04 11:52:56;;;;;;;5.50;2.50;;;22.40;99.90;;;;;;5048405;28;20457;-79
2023/09/04 11:55:24;;;;;;;5.30;2.45;;;22.30;99.90;;;;;;5035590;28;20044;-74
2023/09/04 11:57:50;;;;;;;5.95;2.63;;;22.50;99.90;;;;;;5034700;28;20501;-79
2023/09/04 12:00:16;;;;;;;6.28;2.50;;;22.40;99.90;;;;;;5053983;28;20041;-83
2023/09/04 12:02:43;;;;;;;5.10;2.30;;;22.40;99.90;;;;;;5040223;28;20036;-84
2023/09/04 12:05:10;;;;;;;3.70;2.25;;;22.50;99.90;;;;;;5064891;28;20037;-84
2023/09/04 12:07:37;;;;;;;5.70;2.25;;;22.60;99.90;;;;;;5049156;28;20112;-83
2023/09/04 12:10:06;;;;;;;5.50;2.53;;;22.60;99.90;;;;;;5031937;28;20037;-84
2023/09/04 12:12:32;;;;;;;4.15;2.33;;;22.60;99.90;;;;;;5046085;28;20044;-83
2023/09/04 12:14:58;;;;;;;4.85;2.22;;;22.60;99.90;;;;;;5071549;28;20050;-83
2023/09/04 12:17:27;;;;;;;4.60;2.38;;;22.60;99.90;;;;;;5050725;28;20150;-84
2023/09/04 12:19:52;;;;;;;4.20;2.47;;;22.60;99.90;;;;;;5055182;28;20129;-84
2023/09/04 12:22:19;;;;;;;4.72;2.05;;;22.60;99.90;;;;;;5046976;28;20133;-83
2023/09/04 12:25:08;;;;;;;5.18;2.30;;;22.60;99.90;;;;;;5054699;28;20048;-82
2023/09/04 12:27:36;;;;;;;4.50;2.28;;;22.60;99.90;;;;;;5062422;28;20061;-84
2023/09/04 12:30:04;;;;;;;4.82;2.20;;;22.60;99.90;;;;;;5054126;28;20043;-83
2023/09/04 12:32:32;;;;;;;4.35;1.98;;;22.60;99.90;;;;;;5050510;28;20044;-83
2023/09/04 12:35:08;;;;;;;4.65;2.10;;;22.70;99.90;;;;;;5050417;28;20049;-83
2023/09/04 12:37:38;;;;;;;4.03;1.88;;;22.60;99.90;;;;;;5062910;28;20044;-83
2023/09/04 12:40:05;;;;;;;4.43;1.90;;;22.70;99.90;;;;;;5066935;28;20382;-83
2023/09/04 12:42:30;;;;;;;3.78;2.22;;;22.80;99.90;;;;;;5042906;28;20042;-82
2023/09/04 12:44:56;;;;;;;4.25;2.00;;;22.80;99.90;;;;;;5015264;28;20084;-83